createdAt,value
2019-04-30T04:53:44.066Z,22821
2019-04-30T04:58:43.097Z,22927
2019-04-30T05:03:43.326Z,23627
2019-04-30T05:08:42.342Z,24067
2019-04-30T05:13:41.780Z,24906
2019-04-30T05:18:41.111Z,25582
2019-04-30T05:23:42.654Z,26115
2019-04-30T05:28:40.431Z,26617
2019-04-30T05:33:39.489Z,27543
2019-04-30T05:43:38.855Z,30638
2019-04-30T05:48:39.679Z,30433
2019-04-30T05:53:39.142Z,30232
2019-04-30T06:03:38.302Z,30297
2019-04-30T06:08:35.596Z,30386
2019-04-30T06:13:35.069Z,30534
2019-04-30T06:18:34.944Z,31226
2019-04-30T06:23:34.282Z,31719
2019-04-30T06:28:34.075Z,31628
2019-04-30T06:33:33.283Z,31789
2019-04-30T06:38:32.510Z,31479
2019-04-30T06:48:31.869Z,31748
2019-04-30T06:53:31.821Z,33166
2019-04-30T06:58:30.156Z,33737
2019-04-30T07:13:29.686Z,37060
2019-04-30T07:18:28.910Z,37687
2019-04-30T07:26:19.582Z,34947
2019-04-30T07:31:18.937Z,34947
2019-04-30T07:36:16.583Z,33482
2019-04-30T07:41:15.547Z,33104
2019-04-30T07:46:14.910Z,32825
2019-04-30T07:51:15.314Z,33042
2019-04-30T07:56:25.118Z,32344
2019-04-30T08:01:15.297Z,31784
2019-04-30T08:06:14.792Z,30904
2019-04-30T08:11:23.731Z,30691
2019-04-30T08:16:13.493Z,30910
2019-04-30T08:21:13.597Z,30261
2019-04-30T08:26:11.994Z,30566
2019-04-30T08:31:11.953Z,31278
2019-04-30T08:36:11.125Z,31427
2019-04-30T08:56:09.981Z,32438
2019-04-30T09:01:08.811Z,32811
2019-04-30T09:11:19.693Z,35052
2019-04-30T09:16:06.470Z,36171
2019-04-30T09:26:05.938Z,36600
2019-04-30T09:36:04.986Z,36315
2019-04-30T09:41:04.809Z,36906
2019-04-30T09:46:15.154Z,36609
2019-04-30T09:51:03.534Z,36349
2019-04-30T09:56:03.198Z,36012
2019-04-30T10:01:02.396Z,35587
2019-04-30T10:11:01.476Z,36362
2019-04-30T11:15:53.080Z,35850
2019-04-30T11:20:52.375Z,35495
2019-04-30T11:25:52.744Z,35361
2019-04-30T11:30:51.910Z,35333
2019-04-30T11:36:02.007Z,35000
2019-04-30T11:45:49.798Z,34220
2019-04-30T11:50:49.647Z,33848
2019-04-30T11:55:49.140Z,33641
2019-04-30T12:05:48.994Z,33219
2019-04-30T12:10:46.546Z,33029
2019-04-30T12:15:45.675Z,32855
2019-04-30T12:20:45.779Z,32734
2019-04-30T12:25:44.754Z,32715
2019-04-30T12:30:44.670Z,32624
2019-04-30T12:35:43.818Z,32643
2019-04-30T12:45:42.086Z,32674
2019-04-30T12:55:41.247Z,32486
2019-04-30T13:05:40.003Z,32474
2019-04-30T13:10:39.870Z,32168
2019-04-30T13:20:39.141Z,32544
2019-04-30T13:25:48.872Z,32602
2019-04-30T13:45:35.489Z,33240
2019-04-30T14:00:33.773Z,33257
2019-04-30T14:05:33.070Z,32826
2019-04-30T14:15:32.450Z,32523
2019-04-30T14:20:32.549Z,32230
2019-04-30T15:00:27.128Z,31562
2019-04-30T15:05:38.083Z,31613
2019-04-30T15:10:26.238Z,31637
2019-04-30T15:15:25.569Z,31673
2019-04-30T15:20:24.534Z,31662
2019-04-30T15:25:24.595Z,31679
2019-04-30T15:30:23.947Z,31715
2019-04-30T15:35:23.933Z,31531
2019-04-30T15:40:23.052Z,31279
2019-04-30T15:45:22.008Z,30987
2019-04-30T15:50:22.147Z,30701
2019-04-30T15:55:21.366Z,30449
2019-04-30T16:05:20.319Z,29932
2019-04-30T16:25:19.372Z,28896
2019-04-30T16:35:17.359Z,29101
2019-04-30T16:40:16.198Z,29003
2019-04-30T16:45:15.627Z,28925
2019-04-30T16:50:15.384Z,28743
2019-04-30T16:55:15.264Z,28487
2019-04-30T17:05:13.608Z,27782
2019-04-30T17:15:12.507Z,26102
2019-04-30T17:20:12.724Z,25108
2019-04-30T17:25:11.900Z,24016
2019-04-30T18:16:15.763Z,12854
2019-04-30T18:21:15.599Z,12854
2019-04-30T18:26:14.568Z,7499
